Terminal Aerodrome Forecast
Issued by NWS Cleveland, OH

Home | Current Version | Previous Version | Graphics & Text | Print | Product List | Glossary On
Versions: 1 2 3 4 5 6 7 8 9 10 11 12 13 14 15 16 17 18 19 20 21 22 23 24 25 26
720
FTUS41 KCLE 111138
TAFCLE
TAF
KCLE 111138Z 1112/1218 30014G22KT 6SM -SN OVC045
      TEMPO 1112/1116 5SM -SHSN OVC025
     FM112100 28012KT P6SM OVC050
     FM120200 23007KT P6SM SCT050 OVC100=

USA.gov is the U.S. government's official web portal to all federal, state and local government web resources and services.